Taylors Island, Maryland
Current Conditions -  °F | °C
As of 4:52 PM on Sunday 21 Dec 2014 (Local Time) from KNHK Reporting Station
Few Clouds Few Clouds  
Wind Chill: 35°   Ceiling: Unl
Heat Index: 35°   Visibility: 10mi
Dew Point: 25°   Wind: 0mph
Humidity: 67%   Direction: NA
Pressure: 30.32"   Gusts: NA
Location:  38.47°N, 76.3°W
Report Text: KNHK 212152Z 00000KT 10SM FEW250 02/M04 A3032 RMK AO2 SLP266 T00171039
Loading
Personal Weather Stations






























Interactive Weather Map New forecast layout! Learn more

10-Day Weather Forecast

Advertisements
Track Severe Weather on mobile